createdAt,value
2022-11-30T00:00:22.707Z,3.26
2022-11-30T00:04:34.984Z,3.10
2022-11-30T00:08:47.726Z,3.08
2022-11-30T00:12:59.999Z,3.00
2022-11-30T00:17:12.282Z,3.12
2022-11-30T00:21:24.553Z,3.11
2022-11-30T00:25:37.675Z,3.12
2022-11-30T00:29:49.938Z,3.07
2022-11-30T00:34:02.202Z,3.16
2022-11-30T00:38:14.510Z,3.15
2022-11-30T00:42:26.794Z,3.06
2022-11-30T00:46:48.864Z,3.20
2022-11-30T00:51:01.131Z,3.00
2022-11-30T00:55:13.418Z,3.01
2022-11-30T00:59:34.711Z,2.84
2022-11-30T01:03:47.032Z,2.97
2022-11-30T01:08:01.722Z,3.01
2022-11-30T01:12:13.988Z,2.93
2022-11-30T01:16:32.348Z,3.04
2022-11-30T01:20:44.939Z,3.00
2022-11-30T01:24:57.194Z,2.89
2022-11-30T01:29:09.502Z,2.93
2022-11-30T01:33:21.763Z,2.88
2022-11-30T01:37:38.935Z,3.02
2022-11-30T01:41:51.325Z,2.85
2022-11-30T01:46:03.911Z,2.86
2022-11-30T01:50:34.212Z,2.87
2022-11-30T01:54:52.839Z,2.81
2022-11-30T01:59:05.255Z,2.76
2022-11-30T02:03:40.555Z,2.93
2022-11-30T02:07:53.780Z,2.88
2022-11-30T02:12:43.218Z,2.87
2022-11-30T02:17:13.791Z,2.92
2022-11-30T02:21:48.497Z,2.97
2022-11-30T02:26:43.723Z,3.04
2022-11-30T02:31:00.040Z,2.92
2022-11-30T02:35:14.537Z,3.05
2022-11-30T02:39:26.934Z,3.05
2022-11-30T02:43:40.168Z,2.85
2022-11-30T02:48:01.753Z,3.06
2022-11-30T02:52:15.671Z,3.06
2022-11-30T02:56:28.277Z,3.30
2022-11-30T03:00:40.544Z,3.23
2022-11-30T03:04:52.857Z,3.16
2022-11-30T03:09:05.322Z,3.16
2022-11-30T03:13:17.629Z,3.08
2022-11-30T03:17:29.913Z,3.05
2022-11-30T03:21:42.213Z,2.95
2022-11-30T03:25:59.536Z,2.96
2022-11-30T03:30:22.155Z,2.99
2022-11-30T03:34:34.436Z,2.92
2022-11-30T03:38:48.393Z,2.80
2022-11-30T03:43:00.654Z,2.74
2022-11-30T03:47:12.928Z,2.66
2022-11-30T03:51:25.241Z,2.73
2022-11-30T03:55:37.550Z,2.76
2022-11-30T03:59:49.808Z,2.72
2022-11-30T04:04:02.091Z,2.72
2022-11-30T04:08:15.206Z,2.72
2022-11-30T04:12:27.478Z,2.66
2022-11-30T04:16:39.738Z,2.70
2022-11-30T04:20:59.151Z,2.80
2022-11-30T04:25:21.437Z,2.79
2022-11-30T04:29:33.678Z,2.70
2022-11-30T04:33:45.955Z,2.77
2022-11-30T04:38:04.477Z,2.69
2022-11-30T04:42:16.958Z,2.73
2022-11-30T04:46:30.283Z,2.79
2022-11-30T04:50:42.660Z,2.78
2022-11-30T04:54:55.257Z,2.87
2022-11-30T04:59:07.667Z,2.87
2022-11-30T05:03:19.906Z,2.84
2022-11-30T05:07:32.300Z,2.71
2022-11-30T05:11:44.572Z,2.88
2022-11-30T05:15:56.966Z,2.87
2022-11-30T05:20:09.660Z,2.91
2022-11-30T05:24:21.934Z,2.86
2022-11-30T05:28:34.250Z,2.91
2022-11-30T05:32:46.876Z,2.99
2022-11-30T05:37:09.155Z,2.87
2022-11-30T05:41:21.547Z,2.94
2022-11-30T05:45:33.812Z,2.96
2022-11-30T05:49:46.087Z,2.97
2022-11-30T05:53:59.658Z,3.12
2022-11-30T05:58:12.446Z,2.86
2022-11-30T06:02:28.157Z,2.90
2022-11-30T06:06:40.852Z,2.87
2022-11-30T06:11:02.561Z,2.99
2022-11-30T06:15:15.000Z,3.17
2022-11-30T06:19:27.522Z,3.11
2022-11-30T06:23:39.959Z,3.15
2022-11-30T06:27:52.497Z,3.09
2022-11-30T06:32:07.916Z,2.93
2022-11-30T06:36:23.942Z,3.07
2022-11-30T06:40:36.297Z,3.00
2022-11-30T06:44:49.719Z,2.96
2022-11-30T06:49:02.977Z,2.88
2022-11-30T06:53:15.238Z,2.92
2022-11-30T06:57:31.533Z,2.86
2022-11-30T07:01:43.765Z,3.00
2022-11-30T07:05:56.110Z,2.92
2022-11-30T07:10:09.167Z,3.00
2022-11-30T07:14:21.519Z,3.16
2022-11-30T07:18:34.692Z,3.12
2022-11-30T07:22:47.014Z,3.28
2022-11-30T07:27:01.251Z,3.27
2022-11-30T07:31:24.927Z,3.31
2022-11-30T07:35:37.273Z,3.32
2022-11-30T07:39:49.599Z,3.47
2022-11-30T07:44:01.870Z,3.35
2022-11-30T07:48:14.145Z,3.46
2022-11-30T07:52:26.400Z,3.49
2022-11-30T07:56:39.720Z,3.52
2022-11-30T08:00:52.052Z,3.74
2022-11-30T08:05:04.879Z,3.84
2022-11-30T08:09:20.717Z,3.76
2022-11-30T08:13:34.074Z,3.68
2022-11-30T08:17:46.454Z,3.93
2022-11-30T08:21:58.812Z,4.05
2022-11-30T08:26:32.527Z,4.12
2022-11-30T08:30:44.868Z,3.93
2022-11-30T08:34:57.263Z,4.16
2022-11-30T08:39:19.569Z,4.49
2022-11-30T08:43:32.525Z,4.39
2022-11-30T08:47:45.314Z,4.07
2022-11-30T08:56:29.864Z,4.10
2022-11-30T09:00:42.148Z,4.55
2022-11-30T09:04:54.800Z,4.61
2022-11-30T09:09:07.267Z,4.68
2022-11-30T09:13:19.586Z,4.56
2022-11-30T09:17:31.932Z,4.57
2022-11-30T09:21:49.766Z,4.73
2022-11-30T09:26:09.173Z,4.90
2022-11-30T09:30:21.598Z,4.55
2022-11-30T09:34:33.868Z,4.54
2022-11-30T09:38:46.748Z,4.40
2022-11-30T09:43:07.919Z,4.71
2022-11-30T09:47:34.640Z,4.41
2022-11-30T09:52:00.728Z,4.85
2022-11-30T09:56:26.150Z,5.15
2022-11-30T10:00:40.119Z,5.30
2022-11-30T10:04:52.470Z,5.21
2022-11-30T10:09:15.199Z,5.65
2022-11-30T10:14:21.984Z,5.63
2022-11-30T10:18:42.137Z,5.44
2022-11-30T10:23:11.371Z,5.28
2022-11-30T10:27:47.777Z,5.28
2022-11-30T10:32:01.649Z,5.17
2022-11-30T10:36:25.223Z,5.14
2022-11-30T10:40:45.039Z,5.27
2022-11-30T10:45:04.266Z,5.50
2022-11-30T10:49:19.348Z,5.40
2022-11-30T10:53:39.154Z,5.28
2022-11-30T10:58:08.272Z,5.22
2022-11-30T11:02:39.542Z,5.34
2022-11-30T11:06:58.697Z,5.55
2022-11-30T11:11:33.535Z,5.29
2022-11-30T11:16:00.076Z,5.18
2022-11-30T11:20:33.377Z,5.62
2022-11-30T11:24:46.577Z,4.98
2022-11-30T11:29:00.360Z,5.34
2022-11-30T11:33:15.445Z,5.58
2022-11-30T11:37:31.745Z,5.37
2022-11-30T11:41:44.072Z,5.44
2022-11-30T11:45:59.862Z,5.52
2022-11-30T11:55:22.163Z,5.89
2022-11-30T12:00:02.912Z,5.73
2022-11-30T12:04:43.387Z,5.79
2022-11-30T12:09:04.221Z,5.62
2022-11-30T12:13:19.869Z,5.77
2022-11-30T12:17:38.172Z,5.71
2022-11-30T12:22:02.325Z,5.93
2022-11-30T12:26:39.376Z,6.05
2022-11-30T12:31:12.599Z,5.69
2022-11-30T12:35:43.265Z,5.42
2022-11-30T12:40:14.015Z,5.33
2022-11-30T12:44:54.127Z,5.39
2022-11-30T12:49:27.094Z,5.43
2022-11-30T12:53:50.820Z,5.40
2022-11-30T12:58:32.065Z,5.38
2022-11-30T13:02:56.345Z,5.25
2022-11-30T13:07:34.404Z,5.11
2022-11-30T13:11:54.630Z,5.24
2022-11-30T13:16:09.280Z,5.14
2022-11-30T13:20:39.728Z,5.05
2022-11-30T13:25:00.210Z,4.89
2022-11-30T13:29:17.274Z,5.05
2022-11-30T13:33:35.648Z,5.20
2022-11-30T13:38:34.604Z,4.98
2022-11-30T13:42:44.992Z,4.68
2022-11-30T13:47:03.778Z,4.48
2022-11-30T13:51:37.254Z,4.41
2022-11-30T13:55:49.774Z,4.46
2022-11-30T14:00:32.032Z,4.41
2022-11-30T14:04:48.347Z,4.18
2022-11-30T14:09:00.765Z,4.11
2022-11-30T14:13:31.390Z,3.97
2022-11-30T14:17:43.809Z,3.71
2022-11-30T14:21:57.711Z,3.56
2022-11-30T14:26:13.632Z,3.60
2022-11-30T14:30:26.076Z,3.48
2022-11-30T14:34:44.628Z,3.58
2022-11-30T14:38:57.010Z,3.57
2022-11-30T14:43:17.899Z,3.59
2022-11-30T14:47:37.258Z,3.67
2022-11-30T14:51:58.449Z,3.76
2022-11-30T14:56:49.010Z,3.34
2022-11-30T15:01:04.319Z,3.30
2022-11-30T15:05:21.551Z,3.34
2022-11-30T15:09:33.954Z,3.28
2022-11-30T15:13:49.535Z,3.05
2022-11-30T15:18:21.912Z,3.13
2022-11-30T15:22:35.039Z,3.10
2022-11-30T15:26:55.673Z,2.83
2022-11-30T15:31:11.471Z,2.85
2022-11-30T15:35:38.814Z,2.86
2022-11-30T15:40:01.687Z,2.76
2022-11-30T15:44:44.975Z,2.76
2022-11-30T15:49:07.777Z,2.75
2022-11-30T15:53:36.942Z,2.79
2022-11-30T15:58:03.710Z,2.65
2022-11-30T16:02:28.028Z,2.71
2022-11-30T16:06:48.638Z,2.61
2022-11-30T16:11:06.296Z,2.66
2022-11-30T16:15:29.682Z,2.85
2022-11-30T16:19:42.024Z,2.79
2022-11-30T16:23:54.555Z,2.85
2022-11-30T16:28:11.071Z,3.00
2022-11-30T16:32:27.803Z,2.89
2022-11-30T16:36:40.154Z,2.71
2022-11-30T16:40:54.824Z,2.68
2022-11-30T16:45:15.162Z,2.50
2022-11-30T16:49:28.749Z,2.54
2022-11-30T16:53:42.482Z,2.54
2022-11-30T16:57:56.414Z,2.61
2022-11-30T17:02:19.185Z,2.55
2022-11-30T17:06:41.536Z,2.52
2022-11-30T17:10:55.360Z,2.56
2022-11-30T17:15:12.263Z,2.51
2022-11-30T17:19:24.537Z,2.42
2022-11-30T17:23:36.794Z,2.31
2022-11-30T17:27:53.229Z,2.24
2022-11-30T17:32:05.667Z,2.40
2022-11-30T17:36:19.626Z,2.41
2022-11-30T17:40:44.750Z,2.28
2022-11-30T17:44:57.219Z,2.38
2022-11-30T17:49:09.519Z,2.52
2022-11-30T17:53:21.865Z,2.34
2022-11-30T17:57:34.204Z,2.30
2022-11-30T18:01:56.540Z,2.54
2022-11-30T18:06:08.982Z,2.51
2022-11-30T18:10:21.261Z,2.54
2022-11-30T18:14:33.536Z,2.43
2022-11-30T18:18:48.177Z,2.44
2022-11-30T18:23:01.023Z,2.54
2022-11-30T18:27:13.300Z,2.45
2022-11-30T18:31:26.537Z,2.43
2022-11-30T18:35:38.863Z,2.48
2022-11-30T18:39:51.284Z,2.49
2022-11-30T18:44:03.551Z,2.51
2022-11-30T18:48:15.862Z,2.67
2022-11-30T18:52:28.127Z,2.58
2022-11-30T18:56:40.494Z,2.44
2022-11-30T19:00:52.754Z,2.51
2022-11-30T19:05:10.399Z,2.63
2022-11-30T19:09:25.675Z,2.73
2022-11-30T19:13:38.213Z,2.76
2022-11-30T19:17:50.564Z,2.76
2022-11-30T19:22:02.866Z,2.72
2022-11-30T19:26:15.509Z,2.68
2022-11-30T19:30:28.357Z,2.66
2022-11-30T19:34:40.668Z,2.85
2022-11-30T19:38:53.684Z,2.66
2022-11-30T19:43:06.166Z,2.68
2022-11-30T19:47:18.458Z,2.57
2022-11-30T19:51:31.496Z,2.47
2022-11-30T19:55:44.109Z,2.26
2022-11-30T19:59:56.399Z,2.38
2022-11-30T20:04:08.692Z,2.45
2022-11-30T20:08:20.983Z,2.41
2022-11-30T20:12:33.320Z,2.47
2022-11-30T20:16:45.589Z,2.40
2022-11-30T20:20:57.868Z,2.42
2022-11-30T20:25:10.407Z,2.51
2022-11-30T20:29:22.718Z,2.32
2022-11-30T20:33:39.493Z,2.42
2022-11-30T20:37:51.827Z,2.28
2022-11-30T20:42:04.351Z,2.27
2022-11-30T20:46:23.924Z,2.37
2022-11-30T20:50:36.450Z,2.32
2022-11-30T20:54:49.423Z,2.29
2022-11-30T20:59:03.494Z,2.44
2022-11-30T21:03:15.878Z,2.36
2022-11-30T21:07:38.362Z,2.38
2022-11-30T21:11:50.692Z,2.49
2022-11-30T21:16:07.741Z,2.55
2022-11-30T21:20:20.047Z,2.49
2022-11-30T21:24:32.471Z,2.59
2022-11-30T21:28:46.491Z,2.55
2022-11-30T21:32:58.812Z,2.53
2022-11-30T21:37:11.802Z,2.46
2022-11-30T21:41:24.101Z,2.46
2022-11-30T21:45:36.397Z,2.50
2022-11-30T21:49:48.671Z,2.49
2022-11-30T21:54:02.812Z,2.33
2022-11-30T21:58:15.071Z,2.31
2022-11-30T22:02:27.385Z,2.25
2022-11-30T22:06:41.304Z,2.33
2022-11-30T22:10:53.941Z,2.30
2022-11-30T22:15:06.560Z,2.42
2022-11-30T22:19:19.209Z,2.10
2022-11-30T22:23:33.291Z,2.17
2022-11-30T22:27:45.567Z,2.07
2022-11-30T22:31:58.679Z,1.96
2022-11-30T22:36:23.373Z,1.88
2022-11-30T22:40:35.615Z,1.99
2022-11-30T22:44:47.986Z,1.94
2022-11-30T22:49:01.942Z,2.04
2022-11-30T22:53:14.223Z,1.99
2022-11-30T22:57:26.567Z,1.83
2022-11-30T23:01:44.722Z,1.82
2022-11-30T23:05:57.025Z,1.80
2022-11-30T23:10:10.053Z,1.63
2022-11-30T23:14:22.340Z,1.60
2022-11-30T23:18:40.725Z,1.58
2022-11-30T23:22:52.986Z,1.80
2022-11-30T23:27:05.262Z,1.82
2022-11-30T23:31:32.495Z,1.90
2022-11-30T23:35:47.623Z,1.60
2022-11-30T23:39:59.897Z,1.64
2022-11-30T23:44:12.797Z,1.66
2022-11-30T23:48:26.063Z,1.52
2022-11-30T23:52:38.352Z,1.70
2022-11-30T23:56:50.698Z,1.69
